Barnstable Municipal Boardman Polando Field
KHYA : now visible

Airfield :











YOU CAN JOIN US ON...

 
LOGIN :

Register | Disclaimer

   EN    FR    IT 

 









Legend :    VFR   Marginal VFR   IFR   Intensive IFR   Very Intensive IFR
Visi :
Ceiling :
>= 8 km
>= 3000ft
5 to 8 km
1000 to 3000 ft
1500m to 5 km
500 to 1000 ft
800 to 1500m
200 to 500 ft
< 800m
< 200 ft
Symbols :   Thunderstorms  Fog  Heavy snow  Heavy precipitations  Wind > 20 kt






- Airport Elevation : 54 ft
- IATA code : HYA


KHYA - Barnstable Municipal Boardman Polando Field

CURRENT METAR :
  • 252359Z VRB03KT 1/4SM VV002 14/13 A3019 RMK AO2 T01390128

EXPIRED METARs :
  • 252356Z 11004KT 1/2SM VV002 14/13 A3019 RMK AO2 SLP224 T01390128 10183 20139 56008
  • 252340Z 11003KT 1/2SM OVC002 14/13 A3019 RMK AO2 T01390128
  • 252324Z 13004KT 1 3/4SM OVC003 14/13 A3019 RMK AO2 VIS 1/2V5 T01440128
  • 252300Z VRB05KT 10SM FEW005 16/13 A3020 RMK AO2 T01560128
  • 252256Z 16005KT 10SM CLR 16/13 A3020 RMK AO2 SLP226 T01560128
  • 252156Z 11004KT 10SM CLR 17/13 A3020 RMK AO2 SLP227 T01720133

TAF KHYA
Valid from the 26 at 00:00 until the 27 at 00:00 UTC


252326Z 2600/2624 12004KT 5SM BR BKN003
FM260200 11003KT 1/4SM FG OVC003
FM261400 16003KT 2SM BR BKN003
FM261600 17005KT 5SM BR BKN040
FM261700 19008KT P6SM SCT120
KZBW FIR / North America



MET'MAP, your aeronautical weather chart ! - Copyright ORBIFLY December 2007 - Disclaimer

ORBIFLY MET'MAP TEAM :

Programming & Development : Alexandra Zaïnal
Concept & original design : Baudouin d'Aumeries
Assistance for programming : Marc-Olivier Méhu
Technical & hardware support : Manuel Goepfert

Contact : metmap@orbifly.com




SOURCES & CREDITS :

   NOAA       Earth
Advisory